In Rescue
 
Wind Gusting 00 knots
03
June 26, 2019 10:37 PM EDT
Weather Information
Wind Direction
  260 °
Wind Speed
  03 kt (3 mph)
Wind Gust
  00 kt (0 mph)
Altimeter
30.10 in
Visibility
10 SM
Temperature
23° C
73° F
Dewpoint
14° C
57° F
Humidity
57%
1hr Rain Fall
00.00 in.
24hr Rain Fall
00.00 in.
Sky Condition
Clear
VFR

METAR KD95 270237Z AUTO 26003KT 10SM CLR 23/14 A3010 RMK AO2 T02300137

FAA Disclaimer: The data displayed is for advisory purposes only and is not to be used for flight planning or operations.